sensor_id;sensor_type;location;lat;lon;timestamp;P1;durP1;ratioP1;P2;durP2;ratioP2
23322;SDS011;11833;52.554;13.554;2023-03-01T01:01:47;11.40;;;7.38;;
23322;SDS011;11833;52.554;13.554;2023-03-01T01:04:14;11.80;;;6.95;;
23322;SDS011;11833;52.554;13.554;2023-03-01T01:06:41;9.43;;;5.95;;
23322;SDS011;11833;52.554;13.554;2023-03-01T01:09:10;10.25;;;6.30;;
23322;SDS011;11833;52.554;13.554;2023-03-01T01:11:42;12.85;;;7.22;;
23322;SDS011;11833;52.554;13.554;2023-03-01T01:14:13;11.15;;;5.47;;
23322;SDS011;11833;52.554;13.554;2023-03-01T01:16:39;11.02;;;5.85;;
23322;SDS011;11833;52.554;13.554;2023-03-01T01:19:05;9.65;;;5.03;;
23322;SDS011;11833;52.554;13.554;2023-03-01T01:21:31;10.88;;;5.57;;
23322;SDS011;11833;52.554;13.554;2023-03-01T01:23:57;8.70;;;5.18;;
23322;SDS011;11833;52.554;13.554;2023-03-01T01:26:24;6.95;;;4.57;;
23322;SDS011;11833;52.554;13.554;2023-03-01T01:28:53;9.75;;;5.53;;
23322;SDS011;11833;52.554;13.554;2023-03-01T01:31:20;10.20;;;5.95;;
23322;SDS011;11833;52.554;13.554;2023-03-01T01:33:48;8.32;;;5.28;;
23322;SDS011;11833;52.554;13.554;2023-03-01T01:36:15;7.40;;;4.45;;
23322;SDS011;11833;52.554;13.554;2023-03-01T01:38:41;8.05;;;4.72;;
23322;SDS011;11833;52.554;13.554;2023-03-01T01:41:07;8.07;;;4.38;;
23322;SDS011;11833;52.554;13.554;2023-03-01T01:43:40;5.10;;;4.15;;
23322;SDS011;11833;52.554;13.554;2023-03-01T01:46:15;7.45;;;4.30;;
23322;SDS011;11833;52.554;13.554;2023-03-01T01:48:58;8.40;;;4.25;;
23322;SDS011;11833;52.554;13.554;2023-03-01T01:51:47;6.38;;;4.60;;
23322;SDS011;11833;52.554;13.554;2023-03-01T01:54:22;8.38;;;4.32;;
23322;SDS011;11833;52.554;13.554;2023-03-01T01:57:19;6.05;;;4.45;;
23322;SDS011;11833;52.554;13.554;2023-03-01T02:00:04;8.52;;;4.65;;
23322;SDS011;11833;52.554;13.554;2023-03-01T02:02:39;8.57;;;4.47;;
23322;SDS011;11833;52.554;13.554;2023-03-01T02:05:28;7.47;;;4.70;;
23322;SDS011;11833;52.554;13.554;2023-03-01T02:08:16;7.63;;;4.20;;
23322;SDS011;11833;52.554;13.554;2023-03-01T02:10:45;10.77;;;4.72;;
23322;SDS011;11833;52.554;13.554;2023-03-01T02:13:11;8.73;;;5.32;;
23322;SDS011;11833;52.554;13.554;2023-03-01T02:15:38;6.97;;;4.25;;
23322;SDS011;11833;52.554;13.554;2023-03-01T02:18:06;8.90;;;5.00;;
23322;SDS011;11833;52.554;13.554;2023-03-01T02:20:34;10.63;;;4.90;;
23322;SDS011;11833;52.554;13.554;2023-03-01T02:23:17;7.55;;;4.63;;
23322;SDS011;11833;52.554;13.554;2023-03-01T02:25:47;7.50;;;4.10;;
23322;SDS011;11833;52.554;13.554;2023-03-01T02:31:03;6.72;;;4.50;;
23322;SDS011;11833;52.554;13.554;2023-03-01T02:33:50;8.38;;;4.50;;
23322;SDS011;11833;52.554;13.554;2023-03-01T02:36:26;8.60;;;4.55;;
23322;SDS011;11833;52.554;13.554;2023-03-01T02:38:58;9.00;;;4.53;;
23322;SDS011;11833;52.554;13.554;2023-03-01T02:41:26;8.63;;;4.43;;
23322;SDS011;11833;52.554;13.554;2023-03-01T02:43:56;6.22;;;4.53;;
23322;SDS011;11833;52.554;13.554;2023-03-01T02:46:22;10.10;;;4.15;;
23322;SDS011;11833;52.554;13.554;2023-03-01T02:48:54;6.40;;;3.85;;
23322;SDS011;11833;52.554;13.554;2023-03-01T02:54:05;7.68;;;4.63;;
23322;SDS011;11833;52.554;13.554;2023-03-01T02:56:38;7.90;;;4.95;;
23322;SDS011;11833;52.554;13.554;2023-03-01T02:59:06;9.20;;;5.05;;
23322;SDS011;11833;52.554;13.554;2023-03-01T03:01:32;6.95;;;4.78;;
23322;SDS011;11833;52.554;13.554;2023-03-01T03:04:04;8.10;;;4.85;;
23322;SDS011;11833;52.554;13.554;2023-03-01T03:06:36;8.40;;;4.70;;
23322;SDS011;11833;52.554;13.554;2023-03-01T03:09:03;11.43;;;5.53;;
23322;SDS011;11833;52.554;13.554;2023-03-01T03:11:30;7.32;;;4.95;;
23322;SDS011;11833;52.554;13.554;2023-03-01T03:13:57;10.73;;;5.47;;
23322;SDS011;11833;52.554;13.554;2023-03-01T03:16:23;10.23;;;5.82;;
23322;SDS011;11833;52.554;13.554;2023-03-01T03:18:49;7.32;;;4.82;;
23322;SDS011;11833;52.554;13.554;2023-03-01T03:21:16;9.63;;;4.97;;
23322;SDS011;11833;52.554;13.554;2023-03-01T03:23:42;10.50;;;5.53;;
23322;SDS011;11833;52.554;13.554;2023-03-01T03:26:08;9.15;;;5.40;;
23322;SDS011;11833;52.554;13.554;2023-03-01T03:28:38;9.60;;;5.13;;
23322;SDS011;11833;52.554;13.554;2023-03-01T03:31:05;8.13;;;5.07;;
23322;SDS011;11833;52.554;13.554;2023-03-01T03:33:32;8.45;;;5.00;;
23322;SDS011;11833;52.554;13.554;2023-03-01T03:35:58;9.07;;;5.22;;
23322;SDS011;11833;52.554;13.554;2023-03-01T03:38:24;9.55;;;5.60;;
23322;SDS011;11833;52.554;13.554;2023-03-01T03:41:03;7.40;;;4.95;;
23322;SDS011;11833;52.554;13.554;2023-03-01T03:43:33;7.10;;;5.05;;
23322;SDS011;11833;52.554;13.554;2023-03-01T03:46:01;10.10;;;5.90;;
23322;SDS011;11833;52.554;13.554;2023-03-01T03:48:35;8.55;;;5.70;;
23322;SDS011;11833;52.554;13.554;2023-03-01T03:51:03;11.20;;;6.20;;
23322;SDS011;11833;52.554;13.554;2023-03-01T03:53:31;8.65;;;6.35;;
23322;SDS011;11833;52.554;13.554;2023-03-01T03:55:57;9.68;;;5.78;;
23322;SDS011;11833;52.554;13.554;2023-03-01T03:58:23;11.30;;;6.53;;
23322;SDS011;11833;52.554;13.554;2023-03-01T04:00:54;9.75;;;6.10;;
23322;SDS011;11833;52.554;13.554;2023-03-01T04:03:22;12.88;;;7.10;;
23322;SDS011;11833;52.554;13.554;2023-03-01T04:05:49;9.80;;;6.32;;
23322;SDS011;11833;52.554;13.554;2023-03-01T04:08:17;12.20;;;6.60;;
23322;SDS011;11833;52.554;13.554;2023-03-01T04:10:46;8.50;;;5.65;;
23322;SDS011;11833;52.554;13.554;2023-03-01T04:13:16;10.18;;;6.50;;
23322;SDS011;11833;52.554;13.554;2023-03-01T04:15:45;9.40;;;5.65;;
23322;SDS011;11833;52.554;13.554;2023-03-01T04:18:16;9.80;;;5.93;;
23322;SDS011;11833;52.554;13.554;2023-03-01T04:20:43;10.07;;;6.55;;
23322;SDS011;11833;52.554;13.554;2023-03-01T04:23:14;10.70;;;6.50;;
23322;SDS011;11833;52.554;13.554;2023-03-01T04:25:52;8.32;;;5.90;;
23322;SDS011;11833;52.554;13.554;2023-03-01T04:28:31;12.73;;;7.20;;
23322;SDS011;11833;52.554;13.554;2023-03-01T04:31:04;9.00;;;6.18;;
23322;SDS011;11833;52.554;13.554;2023-03-01T04:33:45;11.30;;;6.55;;
23322;SDS011;11833;52.554;13.554;2023-03-01T04:36:16;11.68;;;6.15;;
23322;SDS011;11833;52.554;13.554;2023-03-01T04:38:44;11.88;;;6.32;;
23322;SDS011;11833;52.554;13.554;2023-03-01T04:41:14;11.48;;;7.15;;
23322;SDS011;11833;52.554;13.554;2023-03-01T04:43:45;14.45;;;7.55;;
23322;SDS011;11833;52.554;13.554;2023-03-01T04:46:12;16.33;;;8.65;;
23322;SDS011;11833;52.554;13.554;2023-03-01T04:48:41;15.05;;;9.07;;
23322;SDS011;11833;52.554;13.554;2023-03-01T04:51:08;24.30;;;13.65;;
23322;SDS011;11833;52.554;13.554;2023-03-01T04:53:34;29.10;;;14.15;;
23322;SDS011;11833;52.554;13.554;2023-03-01T04:56:03;25.27;;;13.32;;
23322;SDS011;11833;52.554;13.554;2023-03-01T04:58:29;21.13;;;12.65;;
23322;SDS011;11833;52.554;13.554;2023-03-01T05:00:55;17.17;;;11.18;;
23322;SDS011;11833;52.554;13.554;2023-03-01T05:03:21;31.83;;;15.05;;
23322;SDS011;11833;52.554;13.554;2023-03-01T05:05:48;27.90;;;12.82;;
23322;SDS011;11833;52.554;13.554;2023-03-01T05:08:16;17.52;;;9.95;;
23322;SDS011;11833;52.554;13.554;2023-03-01T05:10:50;17.92;;;8.38;;
23322;SDS011;11833;52.554;13.554;2023-03-01T05:13:18;27.27;;;13.07;;
23322;SDS011;11833;52.554;13.554;2023-03-01T05:15:56;15.07;;;8.30;;
23322;SDS011;11833;52.554;13.554;2023-03-01T05:18:25;13.70;;;8.15;;
23322;SDS011;11833;52.554;13.554;2023-03-01T05:20:56;18.20;;;8.23;;
23322;SDS011;11833;52.554;13.554;2023-03-01T05:23:29;22.02;;;8.10;;
23322;SDS011;11833;52.554;13.554;2023-03-01T05:25:59;17.75;;;8.40;;
23322;SDS011;11833;52.554;13.554;2023-03-01T05:28:28;18.52;;;9.05;;
23322;SDS011;11833;52.554;13.554;2023-03-01T05:30:56;22.25;;;10.27;;
23322;SDS011;11833;52.554;13.554;2023-03-01T05:33:23;18.88;;;9.15;;
23322;SDS011;11833;52.554;13.554;2023-03-01T05:35:50;16.42;;;9.02;;
23322;SDS011;11833;52.554;13.554;2023-03-01T05:38:17;23.75;;;10.70;;
23322;SDS011;11833;52.554;13.554;2023-03-01T05:40:45;21.02;;;9.43;;
23322;SDS011;11833;52.554;13.554;2023-03-01T05:43:13;27.08;;;9.93;;
23322;SDS011;11833;52.554;13.554;2023-03-01T05:45:40;20.83;;;11.00;;
23322;SDS011;11833;52.554;13.554;2023-03-01T05:48:07;31.00;;;12.30;;
23322;SDS011;11833;52.554;13.554;2023-03-01T05:50:35;22.50;;;9.85;;
23322;SDS011;11833;52.554;13.554;2023-03-01T05:53:05;24.10;;;11.30;;
23322;SDS011;11833;52.554;13.554;2023-03-01T05:55:38;22.52;;;10.07;;
23322;SDS011;11833;52.554;13.554;2023-03-01T05:58:07;26.33;;;10.27;;
23322;SDS011;11833;52.554;13.554;2023-03-01T06:00:36;27.50;;;10.35;;
23322;SDS011;11833;52.554;13.554;2023-03-01T06:03:01;38.60;;;16.33;;
23322;SDS011;11833;52.554;13.554;2023-03-01T06:05:28;23.63;;;10.48;;
23322;SDS011;11833;52.554;13.554;2023-03-01T06:07:55;43.17;;;14.98;;
23322;SDS011;11833;52.554;13.554;2023-03-01T06:10:24;21.77;;;10.23;;
23322;SDS011;11833;52.554;13.554;2023-03-01T06:12:50;35.35;;;15.82;;
23322;SDS011;11833;52.554;13.554;2023-03-01T06:15:16;34.05;;;13.82;;
23322;SDS011;11833;52.554;13.554;2023-03-01T06:17:43;24.83;;;12.55;;
23322;SDS011;11833;52.554;13.554;2023-03-01T06:20:12;30.05;;;14.57;;
23322;SDS011;11833;52.554;13.554;2023-03-01T06:22:40;44.40;;;19.02;;
23322;SDS011;11833;52.554;13.554;2023-03-01T06:25:07;31.52;;;14.45;;
23322;SDS011;11833;52.554;13.554;2023-03-01T06:27:34;40.33;;;15.82;;
23322;SDS011;11833;52.554;13.554;2023-03-01T06:30:00;33.95;;;15.95;;
23322;SDS011;11833;52.554;13.554;2023-03-01T06:32:26;35.25;;;14.85;;
23322;SDS011;11833;52.554;13.554;2023-03-01T06:34:52;28.95;;;15.38;;
23322;SDS011;11833;52.554;13.554;2023-03-01T06:37:18;39.72;;;14.38;;
23322;SDS011;11833;52.554;13.554;2023-03-01T06:39:43;38.03;;;15.52;;
23322;SDS011;11833;52.554;13.554;2023-03-01T06:42:09;30.40;;;13.57;;
23322;SDS011;11833;52.554;13.554;2023-03-01T06:44:36;37.13;;;12.85;;
23322;SDS011;11833;52.554;13.554;2023-03-01T06:47:02;21.60;;;11.40;;
23322;SDS011;11833;52.554;13.554;2023-03-01T06:49:28;24.23;;;11.70;;
23322;SDS011;11833;52.554;13.554;2023-03-01T06:51:55;26.85;;;11.85;;
23322;SDS011;11833;52.554;13.554;2023-03-01T06:54:21;20.75;;;11.27;;
23322;SDS011;11833;52.554;13.554;2023-03-01T06:56:48;32.05;;;11.73;;
23322;SDS011;11833;52.554;13.554;2023-03-01T06:59:15;24.33;;;10.60;;
23322;SDS011;11833;52.554;13.554;2023-03-01T07:01:43;27.73;;;10.68;;
23322;SDS011;11833;52.554;13.554;2023-03-01T07:04:09;20.75;;;9.73;;
23322;SDS011;11833;52.554;13.554;2023-03-01T07:06:36;37.85;;;21.08;;
23322;SDS011;11833;52.554;13.554;2023-03-01T07:09:02;22.88;;;13.85;;
23322;SDS011;11833;52.554;13.554;2023-03-01T07:11:28;23.58;;;11.95;;
23322;SDS011;11833;52.554;13.554;2023-03-01T07:13:53;22.85;;;12.85;;
23322;SDS011;11833;52.554;13.554;2023-03-01T07:16:20;19.60;;;10.05;;
23322;SDS011;11833;52.554;13.554;2023-03-01T07:18:46;20.48;;;10.80;;
23322;SDS011;11833;52.554;13.554;2023-03-01T07:21:12;23.83;;;11.43;;
23322;SDS011;11833;52.554;13.554;2023-03-01T07:23:39;22.85;;;12.77;;
23322;SDS011;11833;52.554;13.554;2023-03-01T07:26:06;21.70;;;11.68;;
23322;SDS011;11833;52.554;13.554;2023-03-01T07:28:32;18.30;;;11.63;;
23322;SDS011;11833;52.554;13.554;2023-03-01T07:31:03;22.33;;;11.38;;
23322;SDS011;11833;52.554;13.554;2023-03-01T07:33:31;25.90;;;11.50;;
23322;SDS011;11833;52.554;13.554;2023-03-01T07:35:58;21.70;;;11.98;;
23322;SDS011;11833;52.554;13.554;2023-03-01T07:38:25;19.35;;;10.77;;
23322;SDS011;11833;52.554;13.554;2023-03-01T07:40:52;23.40;;;11.77;;
23322;SDS011;11833;52.554;13.554;2023-03-01T07:43:18;20.45;;;10.75;;
23322;SDS011;11833;52.554;13.554;2023-03-01T07:45:46;22.42;;;10.57;;
23322;SDS011;11833;52.554;13.554;2023-03-01T07:48:11;21.33;;;11.40;;
23322;SDS011;11833;52.554;13.554;2023-03-01T07:50:37;19.17;;;9.90;;
23322;SDS011;11833;52.554;13.554;2023-03-01T07:53:03;13.50;;;8.82;;
23322;SDS011;11833;52.554;13.554;2023-03-01T07:55:29;17.27;;;9.38;;
23322;SDS011;11833;52.554;13.554;2023-03-01T07:57:55;21.05;;;10.38;;
23322;SDS011;11833;52.554;13.554;2023-03-01T08:00:21;22.65;;;9.10;;
23322;SDS011;11833;52.554;13.554;2023-03-01T08:02:47;12.95;;;7.00;;
23322;SDS011;11833;52.554;13.554;2023-03-01T08:05:13;12.48;;;6.95;;
23322;SDS011;11833;52.554;13.554;2023-03-01T08:07:39;10.85;;;6.03;;
23322;SDS011;11833;52.554;13.554;2023-03-01T08:10:05;11.52;;;7.05;;
23322;SDS011;11833;52.554;13.554;2023-03-01T08:12:32;9.02;;;5.40;;
23322;SDS011;11833;52.554;13.554;2023-03-01T08:14:58;9.95;;;5.75;;
23322;SDS011;11833;52.554;13.554;2023-03-01T08:17:24;10.45;;;5.75;;
23322;SDS011;11833;52.554;13.554;2023-03-01T08:19:49;9.20;;;5.28;;
23322;SDS011;11833;52.554;13.554;2023-03-01T08:22:15;12.40;;;6.10;;
23322;SDS011;11833;52.554;13.554;2023-03-01T08:24:41;9.85;;;6.20;;
23322;SDS011;11833;52.554;13.554;2023-03-01T08:27:07;11.60;;;6.13;;
23322;SDS011;11833;52.554;13.554;2023-03-01T08:29:33;13.40;;;5.55;;
23322;SDS011;11833;52.554;13.554;2023-03-01T08:31:59;8.80;;;5.68;;
23322;SDS011;11833;52.554;13.554;2023-03-01T08:34:25;8.75;;;5.65;;
23322;SDS011;11833;52.554;13.554;2023-03-01T08:36:51;13.45;;;5.88;;
23322;SDS011;11833;52.554;13.554;2023-03-01T08:39:17;10.65;;;4.88;;
23322;SDS011;11833;52.554;13.554;2023-03-01T08:41:46;8.75;;;5.22;;
23322;SDS011;11833;52.554;13.554;2023-03-01T08:44:12;8.15;;;4.65;;
23322;SDS011;11833;52.554;13.554;2023-03-01T08:46:41;10.25;;;5.43;;
23322;SDS011;11833;52.554;13.554;2023-03-01T08:49:13;9.45;;;5.40;;
23322;SDS011;11833;52.554;13.554;2023-03-01T08:51:41;9.35;;;5.65;;
23322;SDS011;11833;52.554;13.554;2023-03-01T08:54:26;10.10;;;6.15;;
23322;SDS011;11833;52.554;13.554;2023-03-01T08:56:52;12.23;;;6.80;;
23322;SDS011;11833;52.554;13.554;2023-03-01T08:59:18;9.52;;;6.00;;
23322;SDS011;11833;52.554;13.554;2023-03-01T09:01:44;8.45;;;5.18;;
23322;SDS011;11833;52.554;13.554;2023-03-01T09:04:11;9.40;;;4.82;;
23322;SDS011;11833;52.554;13.554;2023-03-01T09:06:37;9.38;;;5.20;;
23322;SDS011;11833;52.554;13.554;2023-03-01T09:09:04;10.00;;;5.00;;
23322;SDS011;11833;52.554;13.554;2023-03-01T09:11:30;18.13;;;5.60;;
23322;SDS011;11833;52.554;13.554;2023-03-01T09:13:56;6.93;;;4.60;;
23322;SDS011;11833;52.554;13.554;2023-03-01T09:16:22;12.65;;;5.78;;
23322;SDS011;11833;52.554;13.554;2023-03-01T09:18:49;10.65;;;5.35;;
23322;SDS011;11833;52.554;13.554;2023-03-01T09:21:20;8.20;;;4.55;;
23322;SDS011;11833;52.554;13.554;2023-03-01T09:23:48;8.55;;;3.88;;
23322;SDS011;11833;52.554;13.554;2023-03-01T09:26:18;9.60;;;4.45;;
23322;SDS011;11833;52.554;13.554;2023-03-01T09:28:49;6.10;;;3.58;;
23322;SDS011;11833;52.554;13.554;2023-03-01T09:31:18;5.65;;;2.75;;
23322;SDS011;11833;52.554;13.554;2023-03-01T09:33:47;6.05;;;3.50;;
23322;SDS011;11833;52.554;13.554;2023-03-01T09:36:16;5.28;;;3.22;;
23322;SDS011;11833;52.554;13.554;2023-03-01T09:38:45;4.78;;;2.55;;
23322;SDS011;11833;52.554;13.554;2023-03-01T09:41:20;6.28;;;2.60;;
23322;SDS011;11833;52.554;13.554;2023-03-01T09:47:19;6.53;;;2.47;;
23322;SDS011;11833;52.554;13.554;2023-03-01T09:52:44;3.47;;;2.15;;
23322;SDS011;11833;52.554;13.554;2023-03-01T10:04:53;3.80;;;2.50;;
23322;SDS011;11833;52.554;13.554;2023-03-01T10:07:53;4.70;;;2.83;;
23322;SDS011;11833;52.554;13.554;2023-03-01T10:10:34;4.15;;;2.70;;
23322;SDS011;11833;52.554;13.554;2023-03-01T10:13:06;4.80;;;3.28;;
23322;SDS011;11833;52.554;13.554;2023-03-01T10:15:47;6.50;;;2.38;;
23322;SDS011;11833;52.554;13.554;2023-03-01T10:18:22;4.65;;;2.45;;
23322;SDS011;11833;52.554;13.554;2023-03-01T10:20:59;4.18;;;2.40;;
23322;SDS011;11833;52.554;13.554;2023-03-01T10:23:40;4.53;;;2.38;;
23322;SDS011;11833;52.554;13.554;2023-03-01T10:26:16;8.57;;;4.70;;
23322;SDS011;11833;52.554;13.554;2023-03-01T10:28:50;6.53;;;3.60;;
23322;SDS011;11833;52.554;13.554;2023-03-01T10:31:20;6.60;;;3.70;;
23322;SDS011;11833;52.554;13.554;2023-03-01T10:33:54;5.88;;;2.63;;
23322;SDS011;11833;52.554;13.554;2023-03-01T10:36:22;7.43;;;4.10;;
23322;SDS011;11833;52.554;13.554;2023-03-01T10:41:22;5.37;;;2.50;;
23322;SDS011;11833;52.554;13.554;2023-03-01T10:43:53;5.40;;;2.75;;
23322;SDS011;11833;52.554;13.554;2023-03-01T10:51:40;8.68;;;3.92;;
23322;SDS011;11833;52.554;13.554;2023-03-01T10:54:29;4.97;;;2.90;;
23322;SDS011;11833;52.554;13.554;2023-03-01T10:57:01;6.45;;;3.10;;
23322;SDS011;11833;52.554;13.554;2023-03-01T11:02:18;5.00;;;2.92;;
23322;SDS011;11833;52.554;13.554;2023-03-01T11:04:59;5.75;;;2.70;;
23322;SDS011;11833;52.554;13.554;2023-03-01T11:07:51;4.72;;;2.70;;
23322;SDS011;11833;52.554;13.554;2023-03-01T11:10:30;6.13;;;2.83;;
23322;SDS011;11833;52.554;13.554;2023-03-01T11:13:09;4.25;;;2.50;;
23322;SDS011;11833;52.554;13.554;2023-03-01T11:15:41;5.07;;;2.25;;
23322;SDS011;11833;52.554;13.554;2023-03-01T11:18:21;2.63;;;1.65;;
23322;SDS011;11833;52.554;13.554;2023-03-01T11:20:48;2.58;;;1.65;;
23322;SDS011;11833;52.554;13.554;2023-03-01T11:23:16;3.60;;;1.77;;
23322;SDS011;11833;52.554;13.554;2023-03-01T11:25:56;3.42;;;1.38;;
23322;SDS011;11833;52.554;13.554;2023-03-01T11:28:27;3.10;;;1.45;;
23322;SDS011;11833;52.554;13.554;2023-03-01T11:31:02;2.45;;;1.60;;
23322;SDS011;11833;52.554;13.554;2023-03-01T11:33:47;2.38;;;1.42;;
23322;SDS011;11833;52.554;13.554;2023-03-01T11:41:59;3.83;;;1.65;;
23322;SDS011;11833;52.554;13.554;2023-03-01T11:44:34;3.13;;;1.60;;
23322;SDS011;11833;52.554;13.554;2023-03-01T11:47:21;3.45;;;1.90;;
23322;SDS011;11833;52.554;13.554;2023-03-01T11:53:05;3.90;;;2.13;;
23322;SDS011;11833;52.554;13.554;2023-03-01T11:56:45;2.22;;;1.60;;
23322;SDS011;11833;52.554;13.554;2023-03-01T12:02:32;3.30;;;2.05;;
23322;SDS011;11833;52.554;13.554;2023-03-01T12:11:25;3.25;;;2.20;;
23322;SDS011;11833;52.554;13.554;2023-03-01T12:20:02;6.63;;;2.10;;
23322;SDS011;11833;52.554;13.554;2023-03-01T12:28:29;5.18;;;2.03;;
23322;SDS011;11833;52.554;13.554;2023-03-01T12:31:18;5.03;;;1.90;;
23322;SDS011;11833;52.554;13.554;2023-03-01T12:37:33;4.20;;;2.28;;
23322;SDS011;11833;52.554;13.554;2023-03-01T12:43:15;3.22;;;2.10;;
23322;SDS011;11833;52.554;13.554;2023-03-01T12:45:54;3.28;;;2.03;;
23322;SDS011;11833;52.554;13.554;2023-03-01T12:49:17;3.88;;;1.92;;
23322;SDS011;11833;52.554;13.554;2023-03-01T12:52:50;6.72;;;2.50;;
23322;SDS011;11833;52.554;13.554;2023-03-01T12:55:24;3.80;;;2.27;;
23322;SDS011;11833;52.554;13.554;2023-03-01T13:01:11;3.08;;;1.75;;
23322;SDS011;11833;52.554;13.554;2023-03-01T13:09:49;3.10;;;2.30;;
23322;SDS011;11833;52.554;13.554;2023-03-01T13:28:38;2.13;;;1.80;;
23322;SDS011;11833;52.554;13.554;2023-03-01T13:31:56;5.05;;;1.90;;
23322;SDS011;11833;52.554;13.554;2023-03-01T13:35:00;2.15;;;1.58;;
23322;SDS011;11833;52.554;13.554;2023-03-01T13:37:10;2.90;;;2.13;;
23322;SDS011;11833;52.554;13.554;2023-03-01T13:39:45;4.45;;;2.40;;
23322;SDS011;11833;52.554;13.554;2023-03-01T13:42:32;4.13;;;1.80;;
23322;SDS011;11833;52.554;13.554;2023-03-01T13:45:13;4.35;;;2.42;;
23322;SDS011;11833;52.554;13.554;2023-03-01T13:47:45;3.40;;;2.50;;
23322;SDS011;11833;52.554;13.554;2023-03-01T13:50:16;2.45;;;1.65;;
23322;SDS011;11833;52.554;13.554;2023-03-01T13:53:00;3.88;;;1.70;;
23322;SDS011;11833;52.554;13.554;2023-03-01T13:55:38;3.25;;;2.05;;
23322;SDS011;11833;52.554;13.554;2023-03-01T13:58:45;2.63;;;1.90;;
23322;SDS011;11833;52.554;13.554;2023-03-01T14:01:51;5.28;;;1.90;;
23322;SDS011;11833;52.554;13.554;2023-03-01T14:04:22;2.47;;;1.80;;
23322;SDS011;11833;52.554;13.554;2023-03-01T14:07:12;2.95;;;1.60;;
23322;SDS011;11833;52.554;13.554;2023-03-01T14:09:53;5.50;;;1.85;;
23322;SDS011;11833;52.554;13.554;2023-03-01T14:15:34;4.63;;;2.40;;
23322;SDS011;11833;52.554;13.554;2023-03-01T14:20:54;2.70;;;1.90;;
23322;SDS011;11833;52.554;13.554;2023-03-01T14:23:21;3.35;;;2.55;;
23322;SDS011;11833;52.554;13.554;2023-03-01T14:25:55;3.83;;;1.67;;
23322;SDS011;11833;52.554;13.554;2023-03-01T14:28:27;4.10;;;2.08;;
23322;SDS011;11833;52.554;13.554;2023-03-01T14:30:59;4.32;;;1.77;;
23322;SDS011;11833;52.554;13.554;2023-03-01T14:36:11;2.63;;;1.83;;
23322;SDS011;11833;52.554;13.554;2023-03-01T14:38:40;3.38;;;2.20;;
23322;SDS011;11833;52.554;13.554;2023-03-01T14:44:25;2.75;;;1.83;;
23322;SDS011;11833;52.554;13.554;2023-03-01T14:46:40;4.60;;;1.90;;
23322;SDS011;11833;52.554;13.554;2023-03-01T14:51:51;2.45;;;1.20;;
23322;SDS011;11833;52.554;13.554;2023-03-01T14:54:27;3.13;;;1.50;;
23322;SDS011;11833;52.554;13.554;2023-03-01T14:57:05;2.10;;;1.30;;
23322;SDS011;11833;52.554;13.554;2023-03-01T14:59:32;2.22;;;1.50;;
23322;SDS011;11833;52.554;13.554;2023-03-01T15:01:59;1.83;;;1.23;;
23322;SDS011;11833;52.554;13.554;2023-03-01T15:04:27;3.55;;;2.38;;
23322;SDS011;11833;52.554;13.554;2023-03-01T15:06:55;3.70;;;1.10;;
23322;SDS011;11833;52.554;13.554;2023-03-01T15:09:29;2.60;;;1.50;;
23322;SDS011;11833;52.554;13.554;2023-03-01T15:11:57;2.75;;;1.60;;
23322;SDS011;11833;52.554;13.554;2023-03-01T15:14:27;1.88;;;1.30;;
23322;SDS011;11833;52.554;13.554;2023-03-01T15:20:00;2.50;;;1.10;;
23322;SDS011;11833;52.554;13.554;2023-03-01T15:22:29;3.83;;;1.55;;
23322;SDS011;11833;52.554;13.554;2023-03-01T15:24:55;2.92;;;1.92;;
23322;SDS011;11833;52.554;13.554;2023-03-01T15:27:23;2.25;;;1.38;;
23322;SDS011;11833;52.554;13.554;2023-03-01T15:34:55;4.20;;;1.30;;
23322;SDS011;11833;52.554;13.554;2023-03-01T15:40:17;2.35;;;1.50;;
23322;SDS011;11833;52.554;13.554;2023-03-01T15:42:43;2.67;;;1.92;;
23322;SDS011;11833;52.554;13.554;2023-03-01T15:47:41;3.05;;;1.92;;
23322;SDS011;11833;52.554;13.554;2023-03-01T15:50:16;3.25;;;1.60;;
23322;SDS011;11833;52.554;13.554;2023-03-01T15:52:52;2.28;;;1.30;;
23322;SDS011;11833;52.554;13.554;2023-03-01T15:58:02;3.30;;;1.95;;
23322;SDS011;11833;52.554;13.554;2023-03-01T16:00:34;3.85;;;2.38;;
23322;SDS011;11833;52.554;13.554;2023-03-01T16:03:00;3.72;;;2.83;;
23322;SDS011;11833;52.554;13.554;2023-03-01T16:05:30;6.65;;;4.40;;
23322;SDS011;11833;52.554;13.554;2023-03-01T16:07:59;3.00;;;1.67;;
23322;SDS011;11833;52.554;13.554;2023-03-01T16:10:26;3.63;;;2.22;;
23322;SDS011;11833;52.554;13.554;2023-03-01T16:12:52;5.82;;;2.95;;
23322;SDS011;11833;52.554;13.554;2023-03-01T16:15:20;4.40;;;2.17;;
23322;SDS011;11833;52.554;13.554;2023-03-01T16:17:50;5.95;;;4.22;;
23322;SDS011;11833;52.554;13.554;2023-03-01T16:20:17;4.47;;;1.95;;
23322;SDS011;11833;52.554;13.554;2023-03-01T16:22:43;4.38;;;2.13;;
23322;SDS011;11833;52.554;13.554;2023-03-01T16:25:10;4.25;;;2.90;;
23322;SDS011;11833;52.554;13.554;2023-03-01T16:27:46;4.93;;;3.15;;
23322;SDS011;11833;52.554;13.554;2023-03-01T16:30:15;4.22;;;2.40;;
23322;SDS011;11833;52.554;13.554;2023-03-01T16:32:44;3.97;;;2.67;;
23322;SDS011;11833;52.554;13.554;2023-03-01T16:35:12;3.97;;;2.92;;
23322;SDS011;11833;52.554;13.554;2023-03-01T16:37:41;3.67;;;2.50;;
23322;SDS011;11833;52.554;13.554;2023-03-01T16:40:19;5.70;;;3.05;;
23322;SDS011;11833;52.554;13.554;2023-03-01T16:42:52;4.18;;;2.47;;
23322;SDS011;11833;52.554;13.554;2023-03-01T16:45:20;4.68;;;2.70;;
23322;SDS011;11833;52.554;13.554;2023-03-01T16:47:46;2.78;;;2.30;;
23322;SDS011;11833;52.554;13.554;2023-03-01T16:50:12;4.72;;;2.30;;
23322;SDS011;11833;52.554;13.554;2023-03-01T16:52:37;5.07;;;2.40;;
23322;SDS011;11833;52.554;13.554;2023-03-01T16:55:04;6.43;;;2.88;;
23322;SDS011;11833;52.554;13.554;2023-03-01T16:57:36;3.78;;;1.70;;
23322;SDS011;11833;52.554;13.554;2023-03-01T17:00:04;4.70;;;2.38;;
23322;SDS011;11833;52.554;13.554;2023-03-01T17:02:32;4.70;;;2.25;;
23322;SDS011;11833;52.554;13.554;2023-03-01T17:05:02;5.55;;;2.20;;
23322;SDS011;11833;52.554;13.554;2023-03-01T17:07:29;5.72;;;2.92;;
23322;SDS011;11833;52.554;13.554;2023-03-01T17:10:00;4.15;;;2.15;;
23322;SDS011;11833;52.554;13.554;2023-03-01T17:12:27;5.38;;;2.72;;
23322;SDS011;11833;52.554;13.554;2023-03-01T17:14:52;5.47;;;2.28;;
23322;SDS011;11833;52.554;13.554;2023-03-01T17:17:18;3.53;;;2.80;;
23322;SDS011;11833;52.554;13.554;2023-03-01T17:19:44;5.28;;;3.15;;
23322;SDS011;11833;52.554;13.554;2023-03-01T17:22:10;7.03;;;3.35;;
23322;SDS011;11833;52.554;13.554;2023-03-01T17:24:38;10.75;;;3.33;;
23322;SDS011;11833;52.554;13.554;2023-03-01T17:27:06;5.75;;;3.17;;
23322;SDS011;11833;52.554;13.554;2023-03-01T17:29:32;6.75;;;4.00;;
23322;SDS011;11833;52.554;13.554;2023-03-01T17:31:59;6.20;;;3.72;;
23322;SDS011;11833;52.554;13.554;2023-03-01T17:34:25;4.65;;;3.00;;
23322;SDS011;11833;52.554;13.554;2023-03-01T17:36:51;7.90;;;3.40;;
23322;SDS011;11833;52.554;13.554;2023-03-01T17:39:18;7.53;;;2.60;;
23322;SDS011;11833;52.554;13.554;2023-03-01T17:41:49;6.40;;;3.00;;
23322;SDS011;11833;52.554;13.554;2023-03-01T17:44:19;8.48;;;2.78;;
23322;SDS011;11833;52.554;13.554;2023-03-01T17:46:45;4.85;;;3.35;;
23322;SDS011;11833;52.554;13.554;2023-03-01T17:49:11;4.25;;;2.75;;
23322;SDS011;11833;52.554;13.554;2023-03-01T17:51:37;4.85;;;3.40;;
23322;SDS011;11833;52.554;13.554;2023-03-01T17:54:02;6.00;;;4.22;;
23322;SDS011;11833;52.554;13.554;2023-03-01T17:56:29;9.07;;;3.60;;